Time;durP1;ratioP1;P1;durP2;ratioP2;P2;SDS_P1;SDS_P2;PMS_P1;PMS_P2;Temp;Humidity;BMP_temperature;BMP_pressure;BME280_temperature;BME280_humidity;BME280_pressure;Samples;Min_cycle;Max_cycle;Signal;HPM_P1;HPM_P2
2023/12/26 00:00:38;;;;;;;3.50;1.33;;;;;;;19.19;54.73;100578.06;4965007;28;20039;-36
2023/12/26 00:03:06;;;;;;;3.05;1.20;;;;;;;19.20;54.61;100571.69;4966002;28;20061;-35
2023/12/26 00:05:33;;;;;;;3.78;1.42;;;;;;;19.18;54.84;100571.84;4968168;28;20052;-34
2023/12/26 00:08:04;;;;;;;3.20;1.35;;;;;;;19.18;54.78;100565.66;4966641;28;20055;-34
2023/12/26 00:10:30;;;;;;;3.00;1.10;;;;;;;19.18;54.39;100571.03;4971025;28;20054;-35
2023/12/26 00:12:59;;;;;;;3.95;1.55;;;;;;;19.17;54.18;100559.41;4969145;28;20058;-34
2023/12/26 00:15:27;;;;;;;2.33;1.08;;;;;;;19.15;54.96;100557.91;4966431;28;20105;-35
2023/12/26 00:17:53;;;;;;;3.15;1.63;;;;;;;19.14;54.75;100570.50;4966273;28;20113;-34
2023/12/26 00:20:20;;;;;;;2.55;1.08;;;;;;;19.12;54.84;100553.72;4968565;28;20432;-35
2023/12/26 00:22:47;;;;;;;2.35;1.20;;;;;;;19.11;54.10;100573.53;4967048;28;20051;-34
2023/12/26 00:25:13;;;;;;;2.60;1.10;;;;;;;19.09;54.24;100566.63;4966705;28;20047;-35
2023/12/26 00:27:42;;;;;;;3.42;1.20;;;;;;;19.07;54.20;100566.81;4970197;28;20055;-34
2023/12/26 00:30:09;;;;;;;2.20;1.38;;;;;;;19.06;54.76;100567.81;4966164;28;20057;-34
2023/12/26 00:32:36;;;;;;;2.47;1.05;;;;;;;19.05;54.47;100562.59;4965618;28;20124;-37
2023/12/26 00:35:03;;;;;;;2.70;1.25;;;;;;;19.03;54.66;100573.53;4960422;28;20070;-35
2023/12/26 00:37:31;;;;;;;4.07;1.88;;;;;;;19.02;54.34;100573.69;4970350;28;20129;-34
2023/12/26 00:39:58;;;;;;;3.30;1.17;;;;;;;18.99;54.26;100573.00;4965811;28;20058;-35
2023/12/26 00:42:30;;;;;;;4.30;1.20;;;;;;;18.97;54.08;100564.28;4967055;28;20343;-35
2023/12/26 00:44:58;;;;;;;3.83;1.50;;;;;;;18.96;54.57;100561.75;4965465;28;20415;-34
2023/12/26 00:47:25;;;;;;;2.80;1.10;;;;;;;18.93;54.89;100559.41;4966598;28;20084;-37
2023/12/26 00:49:55;;;;;;;2.42;1.00;;;;;;;18.90;54.56;100563.28;4968748;28;20055;-38
2023/12/26 00:52:22;;;;;;;3.50;1.00;;;;;;;18.90;54.54;100567.81;4966733;28;20101;-36
2023/12/26 00:54:48;;;;;;;2.13;1.00;;;;;;;18.87;54.87;100574.34;4967593;28;20054;-35
2023/12/26 00:57:15;;;;;;;2.30;1.02;;;;;;;18.86;54.85;100571.84;4967264;28;20054;-35
2023/12/26 00:59:42;;;;;;;2.03;1.23;;;;;;;18.84;54.89;100573.84;4967962;28;20740;-36
2023/12/26 01:02:09;;;;;;;3.03;1.30;;;;;;;18.81;55.03;100576.84;4963454;28;20513;-35
2023/12/26 01:04:36;;;;;;;2.20;0.98;;;;;;;18.80;54.97;100589.44;4965410;28;20050;-36
2023/12/26 01:07:04;;;;;;;1.92;0.93;;;;;;;18.78;55.45;100569.97;4965107;28;20137;-36
2023/12/26 01:09:31;;;;;;;2.00;0.90;;;;;;;18.76;54.76;100577.34;4966573;28;20402;-36
2023/12/26 01:11:58;;;;;;;2.95;1.17;;;;;;;18.75;55.06;100586.41;4966865;28;20059;-37
2023/12/26 01:14:24;;;;;;;1.85;0.95;;;;;;;18.72;54.86;100571.44;4964600;28;20055;-35
2023/12/26 01:16:51;;;;;;;1.83;1.13;;;;;;;18.71;55.13;100580.53;4965207;28;20042;-35
2023/12/26 01:19:18;;;;;;;1.38;0.70;;;;;;;18.70;55.28;100594.97;4963362;28;20059;-35
2023/12/26 01:21:44;;;;;;;2.20;1.20;;;;;;;18.69;55.25;100600.44;4964129;28;20058;-34
2023/12/26 01:24:11;;;;;;;1.65;1.30;;;;;;;18.67;55.67;100597.09;4960329;28;20059;-34
2023/12/26 01:26:38;;;;;;;2.50;1.23;;;;;;;18.65;55.28;100597.28;4964848;28;20066;-36
2023/12/26 01:29:07;;;;;;;3.28;1.17;;;;;;;18.64;55.13;100603.63;4966020;28;20054;-35
2023/12/26 01:31:35;;;;;;;3.90;1.10;;;;;;;18.64;55.45;100603.63;4962586;28;20446;-34
2023/12/26 01:34:05;;;;;;;1.83;0.90;;;;;;;18.63;55.29;100609.16;4964575;28;20105;-36
2023/12/26 01:36:32;;;;;;;2.33;1.00;;;;;;;18.67;54.86;100615.88;4965104;28;20055;-36
2023/12/26 01:39:03;;;;;;;2.08;0.90;;;;;;;18.71;55.24;100606.53;4963444;28;20050;-33
2023/12/26 01:41:30;;;;;;;1.95;0.85;;;;;;;18.76;54.92;100606.03;4967094;28;20086;-35
2023/12/26 01:43:57;;;;;;;1.25;0.80;;;;;;;18.84;54.60;100603.38;4962479;28;20414;-35
2023/12/26 01:46:24;;;;;;;3.80;1.58;;;;;;;18.91;54.61;100612.44;4965029;28;20054;-34
2023/12/26 01:48:53;;;;;;;2.15;0.90;;;;;;;18.97;54.71;100617.16;4961862;28;20106;-35
2023/12/26 01:51:22;;;;;;;2.92;1.00;;;;;;;19.04;54.53;100617.34;4968065;28;20416;-34
2023/12/26 01:53:50;;;;;;;3.25;0.90;;;;;;;19.10;54.52;100627.44;4965090;28;20689;-36
2023/12/26 01:56:17;;;;;;;2.58;0.95;;;;;;;19.15;54.34;100617.84;4965492;28;20067;-36
2023/12/26 01:58:48;;;;;;;3.15;1.00;;;;;;;19.20;54.40;100630.78;4965731;28;20059;-34
2023/12/26 02:01:16;;;;;;;4.57;1.10;;;;;;;19.22;54.24;100636.84;4966650;28;20070;-34
2023/12/26 02:03:43;;;;;;;3.75;1.15;;;;;;;19.22;53.87;100637.69;4968571;28;20058;-34
2023/12/26 02:06:10;;;;;;;2.97;1.33;;;;;;;19.22;53.85;100628.78;4966070;28;20062;-34
2023/12/26 02:08:37;;;;;;;5.22;1.50;;;;;;;19.21;53.66;100645.91;4967858;28;20051;-36
2023/12/26 02:11:04;;;;;;;2.53;0.80;;;;;;;19.21;54.18;100656.63;4964727;28;20427;-35
2023/12/26 02:13:34;;;;;;;2.30;1.10;;;;;;;19.18;53.79;100646.25;4968445;28;20081;-35
2023/12/26 02:16:08;;;;;;;2.85;1.27;;;;;;;19.16;54.45;100654.47;4962568;28;20062;-35
2023/12/26 02:18:35;;;;;;;4.65;1.27;;;;;;;19.15;54.50;100668.91;4965650;28;20054;-35
2023/12/26 02:21:04;;;;;;;3.25;1.50;;;;;;;19.13;54.73;100664.69;4962977;28;20800;-35
2023/12/26 02:23:33;;;;;;;6.32;1.40;;;;;;;19.11;53.90;100658.66;4967445;28;20121;-37
2023/12/26 02:26:02;;;;;;;1.77;1.00;;;;;;;19.10;54.52;100673.09;4965508;28;20367;-36
2023/12/26 02:28:31;;;;;;;4.15;1.50;;;;;;;19.08;54.13;100673.25;4965022;28;20347;-34
2023/12/26 02:31:03;;;;;;;1.35;0.85;;;;;;;19.06;54.16;100679.81;4965577;28;20098;-34
2023/12/26 02:33:30;;;;;;;3.05;0.93;;;;;;;19.05;54.72;100684.31;4963328;28;20125;-34
2023/12/26 02:35:59;;;;;;;3.67;1.02;;;;;;;19.04;54.22;100689.88;4967597;28;20058;-35
2023/12/26 02:38:26;;;;;;;3.67;1.13;;;;;;;19.04;54.24;100695.22;4965976;28;20178;-34
2023/12/26 02:40:53;;;;;;;2.45;1.20;;;;;;;19.02;54.59;100689.19;4964898;28;20050;-35
2023/12/26 02:43:23;;;;;;;3.42;1.02;;;;;;;19.00;54.64;100683.97;4963435;28;20058;-33
2023/12/26 02:45:49;;;;;;;3.50;1.30;;;;;;;19.01;54.11;100693.72;4964466;28;20117;-34
2023/12/26 02:48:16;;;;;;;2.20;1.00;;;;;;;18.98;54.37;100694.06;4964539;28;20661;-35
2023/12/26 02:50:44;;;;;;;1.42;0.80;;;;;;;18.97;53.97;100701.28;4966464;28;20071;-34
2023/12/26 02:53:11;;;;;;;1.75;1.23;;;;;;;18.96;54.58;100704.94;4964796;28;20423;-33
2023/12/26 02:55:38;;;;;;;2.10;0.95;;;;;;;18.94;54.65;100711.50;4964564;28;20058;-34
2023/12/26 02:58:05;;;;;;;2.33;0.70;;;;;;;18.91;54.31;100720.72;4963875;28;20063;-35
2023/12/26 03:00:31;;;;;;;2.20;0.82;;;;;;;18.92;54.33;100716.19;4964752;28;20118;-34
2023/12/26 03:02:58;;;;;;;2.33;1.00;;;;;;;18.89;54.76;100711.97;4960693;28;20063;-35
2023/12/26 03:05:25;;;;;;;3.63;0.90;;;;;;;18.88;54.86;100731.78;4964910;28;20093;-34
2023/12/26 03:07:52;;;;;;;2.17;1.00;;;;;;;18.86;54.92;100732.97;4966147;28;20450;-33
2023/12/26 03:10:18;;;;;;;1.38;0.82;;;;;;;18.84;54.24;100745.69;4962498;28;20078;-35
2023/12/26 03:12:45;;;;;;;5.72;1.50;;;;;;;18.79;54.56;100738.13;4960805;28;20564;-33
2023/12/26 03:15:12;;;;;;;2.80;0.75;;;;;;;18.73;54.69;100747.69;4959485;28;20407;-35
2023/12/26 03:17:38;;;;;;;2.72;1.00;;;;;;;18.70;54.91;100742.63;4963947;28;20061;-34
2023/12/26 03:20:06;;;;;;;2.63;0.95;;;;;;;18.65;54.87;100747.59;4964067;28;20051;-36
2023/12/26 03:22:32;;;;;;;3.50;1.08;;;;;;;18.57;55.07;100752.91;4967830;28;20047;-34
2023/12/26 03:24:59;;;;;;;2.90;1.13;;;;;;;18.55;55.22;100757.59;4969859;28;20058;-34
2023/12/26 03:27:26;;;;;;;2.53;1.05;;;;;;;18.51;55.16;100775.03;4967132;28;20262;-35
2023/12/26 03:29:52;;;;;;;2.55;1.10;;;;;;;18.49;55.40;100759.09;4967691;28;20055;-34
2023/12/26 03:32:19;;;;;;;2.03;0.82;;;;;;;18.50;55.78;100758.09;4968616;28;20138;-34
2023/12/26 03:34:46;;;;;;;2.72;0.68;;;;;;;18.53;55.38;100764.94;4968376;28;20047;-34
2023/12/26 03:37:12;;;;;;;2.05;0.75;;;;;;;18.59;55.14;100760.81;4968991;28;20066;-37
2023/12/26 03:39:41;;;;;;;2.05;0.95;;;;;;;18.64;55.33;100778.09;4965589;28;20047;-36
2023/12/26 03:42:08;;;;;;;3.47;1.50;;;;;;;18.70;55.16;100774.84;4969325;28;20050;-35
2023/12/26 03:44:35;;;;;;;2.80;1.30;;;;;;;18.78;55.02;100775.88;4969694;28;20089;-34
2023/12/26 03:47:02;;;;;;;3.28;1.10;;;;;;;18.85;55.00;100779.59;4965955;28;20146;-34
2023/12/26 03:49:28;;;;;;;2.42;1.00;;;;;;;18.90;54.39;100796.09;4966066;28;20490;-37
2023/12/26 03:51:55;;;;;;;2.25;0.98;;;;;;;18.96;54.59;100790.06;4968145;28;20051;-34
2023/12/26 03:54:22;;;;;;;3.85;1.00;;;;;;;19.01;54.41;100779.66;4968191;28;20055;-33
2023/12/26 03:56:48;;;;;;;1.92;0.80;;;;;;;19.06;54.08;100787.25;4968976;28;20073;-33
2023/12/26 03:59:15;;;;;;;3.17;1.00;;;;;;;19.09;54.10;100779.69;4968454;28;20334;-34
2023/12/26 04:01:42;;;;;;;2.05;0.80;;;;;;;19.13;54.15;100796.34;4966590;28;20051;-34
2023/12/26 04:04:08;;;;;;;2.92;0.85;;;;;;;19.14;53.70;100798.03;4966458;28;20097;-35
2023/12/26 04:06:35;;;;;;;4.47;1.00;;;;;;;19.14;53.96;100798.88;4970742;28;20054;-34
2023/12/26 04:09:02;;;;;;;2.90;0.77;;;;;;;19.12;54.06;100808.94;4966095;28;20110;-35
2023/12/26 04:11:30;;;;;;;4.28;1.20;;;;;;;19.09;53.83;100809.25;4968638;28;20043;-35
2023/12/26 04:13:56;;;;;;;1.65;0.73;;;;;;;19.06;53.70;100811.44;4968254;28;20571;-34
2023/12/26 04:16:23;;;;;;;2.05;0.93;;;;;;;19.02;54.25;100820.81;4968269;28;20137;-34
2023/12/26 04:18:50;;;;;;;4.13;0.93;;;;;;;18.98;53.83;100821.13;4968790;28;20043;-34
2023/12/26 04:21:17;;;;;;;3.83;1.00;;;;;;;18.95;54.10;100836.72;4969959;28;20057;-33
2023/12/26 04:23:43;;;;;;;3.13;0.70;;;;;;;18.92;54.22;100855.84;4968494;28;20064;-35
2023/12/26 04:26:10;;;;;;;3.25;0.90;;;;;;;18.89;54.21;100851.63;4962598;28;20051;-35
2023/12/26 04:28:36;;;;;;;3.10;0.82;;;;;;;18.87;54.29;100847.44;4968410;28;20517;-35
2023/12/26 04:31:04;;;;;;;2.35;0.95;;;;;;;18.85;53.94;100849.41;4966985;28;20357;-36
2023/12/26 04:33:31;;;;;;;4.57;1.00;;;;;;;18.83;54.15;100851.44;4969292;28;20050;-34
2023/12/26 04:35:58;;;;;;;2.08;0.77;;;;;;;18.81;54.16;100858.78;4967847;28;20055;-37
2023/12/26 04:38:24;;;;;;;2.85;1.00;;;;;;;18.80;54.15;100865.16;4967153;28;20129;-35
2023/12/26 04:40:51;;;;;;;2.45;1.25;;;;;;;18.78;53.99;100869.88;4968192;28;20386;-33
2023/12/26 04:43:18;;;;;;;2.60;0.82;;;;;;;18.77;53.82;100870.84;4964424;28;20137;-33
2023/12/26 04:45:44;;;;;;;2.38;0.77;;;;;;;18.75;54.46;100860.28;4967244;28;20050;-35
2023/12/26 04:48:11;;;;;;;2.97;1.10;;;;;;;18.72;53.96;100866.78;4963586;28;20086;-33
2023/12/26 04:50:38;;;;;;;2.40;0.90;;;;;;;18.70;54.24;100858.06;4966772;28;20082;-34
2023/12/26 04:53:04;;;;;;;4.53;1.38;;;;;;;18.68;54.46;100875.28;4965333;28;20113;-33
2023/12/26 04:55:34;;;;;;;3.85;1.00;;;;;;;18.64;54.64;100872.06;4966813;28;20054;-36
2023/12/26 04:58:01;;;;;;;2.67;0.80;;;;;;;18.61;54.37;100890.31;4967116;28;20454;-36
2023/12/26 05:00:27;;;;;;;2.78;0.80;;;;;;;18.55;54.68;100897.19;4965617;28;20054;-36
2023/12/26 05:02:55;;;;;;;3.63;1.00;;;;;;;18.49;54.88;100895.09;4962653;28;20105;-37
2023/12/26 05:05:22;;;;;;;1.73;0.75;;;;;;;18.50;55.07;100891.44;4967348;28;20054;-34
2023/12/26 05:07:49;;;;;;;2.47;0.80;;;;;;;18.54;54.50;100902.72;4967539;28;20069;-34
2023/12/26 05:10:15;;;;;;;4.55;1.02;;;;;;;18.58;54.89;100904.09;4962933;28;20113;-35
2023/12/26 05:12:42;;;;;;;3.47;1.52;;;;;;;18.64;54.64;100911.50;4968035;28;20141;-35
2023/12/26 05:15:09;;;;;;;2.83;0.90;;;;;;;18.68;54.45;100911.03;4966068;28;20059;-35
2023/12/26 05:17:35;;;;;;;2.97;1.00;;;;;;;18.72;54.83;100896.31;4964269;28;20437;-34
2023/12/26 05:20:02;;;;;;;3.42;0.90;;;;;;;18.77;54.29;100906.59;4965641;28;20125;-34
2023/12/26 05:22:47;;;;;;;1.58;0.60;;;;;;;18.80;54.51;100906.28;4962125;28;20553;-34
2023/12/26 05:25:14;;;;;;;3.00;1.05;;;;;;;18.81;54.13;100901.75;4966311;28;20418;-35
2023/12/26 05:27:40;;;;;;;4.75;0.90;;;;;;;18.80;53.55;100911.66;4966580;28;20457;-35
2023/12/26 05:30:08;;;;;;;3.88;1.10;;;;;;;18.81;54.42;100915.19;4967906;28;20051;-35
2023/12/26 05:32:35;;;;;;;2.75;0.70;;;;;;;18.80;53.80;100930.44;4966640;28;20042;-35
2023/12/26 05:35:04;;;;;;;2.22;0.65;;;;;;;18.80;54.10;100930.44;4964252;28;20059;-34
2023/12/26 05:37:30;;;;;;;2.83;0.82;;;;;;;18.79;54.11;100949.41;4968459;28;20071;-33
2023/12/26 05:39:57;;;;;;;2.85;1.17;;;;;;;18.77;53.94;100954.09;4962557;28;20089;-35
2023/12/26 05:42:24;;;;;;;3.38;1.33;;;;;;;18.75;54.02;100959.63;4968074;28;20057;-33
2023/12/26 05:44:50;;;;;;;4.10;1.00;;;;;;;18.73;53.87;100965.16;4966293;28;20047;-35
2023/12/26 05:47:18;;;;;;;2.83;1.05;;;;;;;18.72;54.12;100974.19;4962513;28;20054;-36
2023/12/26 05:49:45;;;;;;;2.95;0.90;;;;;;;18.71;54.30;100979.72;4960003;28;20316;-34
2023/12/26 05:52:12;;;;;;;3.95;0.82;;;;;;;18.69;53.93;100987.03;4965808;28;20054;-36
2023/12/26 05:54:39;;;;;;;2.95;1.13;;;;;;;18.67;54.47;100992.59;4967635;28;20112;-34
2023/12/26 05:57:05;;;;;;;3.38;0.85;;;;;;;18.67;53.82;101002.47;4963891;28;20137;-34
2023/12/26 05:59:34;;;;;;;2.63;1.02;;;;;;;18.65;54.09;101008.00;4966927;28;20448;-35
2023/12/26 06:02:00;;;;;;;1.45;0.75;;;;;;;18.65;54.27;101007.16;4963083;28;20053;-34
2023/12/26 06:04:27;;;;;;;1.70;0.68;;;;;;;18.63;53.99;101004.63;4967911;28;20105;-35
2023/12/26 06:06:54;;;;;;;2.10;0.60;;;;;;;18.62;53.83;101016.38;4964594;28;20059;-34
2023/12/26 06:09:20;;;;;;;3.05;0.75;;;;;;;18.62;54.38;101015.53;4967180;28;20465;-35
2023/12/26 06:11:47;;;;;;;1.75;0.63;;;;;;;18.61;53.97;101021.88;4965942;28;20050;-34
2023/12/26 06:14:14;;;;;;;2.47;0.95;;;;;;;18.57;53.86;101018.66;4963010;28;20058;-37
2023/12/26 06:16:40;;;;;;;3.35;1.00;;;;;;;18.57;53.97;101023.19;4964002;28;20121;-34
2023/12/26 06:19:07;;;;;;;4.63;0.90;;;;;;;18.56;54.28;101025.03;4965436;28;20055;-34
2023/12/26 06:21:34;;;;;;;2.65;0.63;;;;;;;18.55;54.21;101031.38;4964948;28;20053;-34
2023/12/26 06:24:00;;;;;;;1.88;0.88;;;;;;;18.54;54.36;101035.09;4961457;28;20051;-34
2023/12/26 06:26:27;;;;;;;2.85;0.70;;;;;;;18.53;54.20;101046.78;4963685;28;20051;-33
2023/12/26 06:28:54;;;;;;;4.60;1.23;;;;;;;18.54;53.92;101042.28;4962694;28;20047;-33
2023/12/26 06:31:20;;;;;;;5.43;0.90;;;;;;;18.55;53.85;101052.03;4962996;28;20109;-34
2023/12/26 06:33:47;;;;;;;1.52;0.70;;;;;;;18.58;54.02;101060.63;4961603;28;20074;-35
2023/12/26 06:36:14;;;;;;;3.90;0.88;;;;;;;18.65;54.27;101060.84;4965099;28;20047;-34
2023/12/26 06:38:41;;;;;;;3.03;0.80;;;;;;;18.71;54.10;101063.81;4962507;28;20191;-33
2023/12/26 06:41:08;;;;;;;2.05;0.98;;;;;;;18.79;54.11;101078.31;4964613;28;20051;-34
2023/12/26 06:43:34;;;;;;;2.28;0.70;;;;;;;18.83;53.97;101074.31;4963429;28;20450;-35
2023/12/26 06:46:03;;;;;;;2.67;0.60;;;;;;;18.88;53.33;101086.28;4963775;28;20419;-34
2023/12/26 06:48:30;;;;;;;2.97;0.98;;;;;;;18.93;53.79;101083.13;4962957;28;20063;-33
2023/12/26 06:50:57;;;;;;;2.88;0.93;;;;;;;18.97;52.94;101095.25;4965597;28;20066;-34
2023/12/26 06:53:24;;;;;;;3.85;0.90;;;;;;;19.01;53.39;101091.25;4962438;28;20121;-33
2023/12/26 06:55:50;;;;;;;3.70;1.02;;;;;;;19.02;52.92;101084.06;4968494;28;20055;-34
2023/12/26 06:58:17;;;;;;;2.35;0.70;;;;;;;19.02;52.64;101087.59;4963709;28;20055;-34
2023/12/26 07:00:43;;;;;;;3.00;0.90;;;;;;;18.99;53.28;101077.16;4970379;28;20053;-35
2023/12/26 07:03:11;;;;;;;3.22;0.90;;;;;;;18.96;52.88;101086.34;4964740;28;20133;-35
2023/12/26 07:05:38;;;;;;;2.75;0.90;;;;;;;18.92;53.03;101092.19;4969398;28;20056;-36
2023/12/26 07:08:05;;;;;;;3.38;1.23;;;;;;;18.87;53.22;101091.81;4965650;28;20093;-33
2023/12/26 07:10:32;;;;;;;3.17;1.00;;;;;;;18.84;53.03;101097.50;4968752;28;20047;-35
2023/12/26 07:12:59;;;;;;;4.05;1.10;;;;;;;18.80;53.61;101109.53;4971193;28;20347;-34
2023/12/26 07:15:25;;;;;;;4.35;0.98;;;;;;;18.76;53.48;101108.97;4964309;28;20058;-34
2023/12/26 07:17:52;;;;;;;3.75;0.90;;;;;;;18.73;53.19;101118.22;4958914;28;20141;-34
2023/12/26 07:20:23;;;;;;;3.15;0.85;;;;;;;18.69;53.87;101127.53;4970224;28;20054;-33
2023/12/26 07:22:49;;;;;;;1.70;1.08;;;;;;;18.67;53.45;101115.25;4964964;28;20046;-34
2023/12/26 07:25:16;;;;;;;3.05;1.15;;;;;;;18.65;53.76;101122.59;4968337;28;20674;-34
2023/12/26 07:27:42;;;;;;;2.95;0.98;;;;;;;18.61;53.53;101122.03;4965089;28;20055;-33
2023/12/26 07:30:09;;;;;;;3.35;0.95;;;;;;;18.58;53.55;101127.75;4969089;28;20047;-35
2023/12/26 07:32:36;;;;;;;1.98;1.02;;;;;;;18.56;53.37;101116.28;4965204;28;20320;-35
2023/12/26 07:35:03;;;;;;;3.20;0.95;;;;;;;18.54;53.98;101126.34;4966962;28;20055;-34
2023/12/26 07:37:30;;;;;;;3.47;0.73;;;;;;;18.53;53.40;101127.31;4969642;28;20119;-34
2023/12/26 07:39:56;;;;;;;4.63;1.20;;;;;;;18.52;53.47;101144.44;4966745;28;20059;-34
2023/12/26 07:42:23;;;;;;;4.85;1.00;;;;;;;18.50;54.02;101158.00;4967798;28;20043;-35
2023/12/26 07:44:50;;;;;;;3.08;1.25;;;;;;;18.49;53.26;101160.81;4964949;28;20057;-34
2023/12/26 07:47:16;;;;;;;2.67;0.88;;;;;;;18.46;53.78;101171.88;4968847;28;20055;-34
2023/12/26 07:49:43;;;;;;;4.65;0.90;;;;;;;18.44;53.66;101171.16;4969847;28;20429;-35
2023/12/26 07:52:10;;;;;;;4.43;1.15;;;;;;;18.43;53.38;101172.16;4970582;28;20050;-34
2023/12/26 07:54:36;;;;;;;2.80;0.90;;;;;;;18.41;53.86;101177.69;4966507;28;20080;-34
2023/12/26 07:57:03;;;;;;;2.60;0.90;;;;;;;18.40;53.66;101188.56;4966977;28;20090;-34
2023/12/26 07:59:30;;;;;;;5.35;1.33;;;;;;;18.38;53.92;101185.19;4962556;28;20043;-33
2023/12/26 08:01:57;;;;;;;3.63;1.10;;;;;;;18.34;53.97;101184.63;4964215;28;20443;-35
2023/12/26 08:04:23;;;;;;;3.45;1.42;;;;;;;18.32;53.96;101199.19;4966028;28;20105;-34
2023/12/26 08:06:50;;;;;;;4.20;1.55;;;;;;;18.28;54.02;101198.63;4964970;28;20141;-35
2023/12/26 08:09:19;;;;;;;5.13;1.90;;;;;;;18.24;54.10;101198.06;4967698;28;20423;-36
2023/12/26 08:11:46;;;;;;;5.65;2.10;;;;;;;18.20;54.20;101203.88;4965586;28;20045;-35
2023/12/26 08:14:17;;;;;;;7.70;2.40;;;;;;;18.15;54.04;101216.91;4966095;28;20050;-34
2023/12/26 08:16:47;;;;;;;7.00;2.40;;;;;;;18.10;54.21;101213.81;4961064;28;20137;-33
2023/12/26 08:19:14;;;;;;;6.03;2.58;;;;;;;18.05;54.32;101216.94;4966648;28;20219;-34
2023/12/26 08:21:45;;;;;;;6.80;2.58;;;;;;;18.00;54.74;101213.81;4963903;28;20055;-34
2023/12/26 08:24:12;;;;;;;8.10;3.28;;;;;;;17.96;54.88;101220.47;4963464;28;20058;-35
2023/12/26 08:26:38;;;;;;;7.65;3.42;;;;;;;17.91;55.30;101218.22;4966069;28;20137;-35
2023/12/26 08:29:05;;;;;;;7.18;3.33;;;;;;;17.86;55.69;101212.44;4965416;28;20058;-35
2023/12/26 08:31:32;;;;;;;8.00;3.58;;;;;;;17.81;55.41;101229.94;4963625;28;20058;-34
2023/12/26 08:33:58;;;;;;;8.73;4.05;;;;;;;17.78;55.52;101224.88;4963147;28;20063;-35
2023/12/26 08:36:25;;;;;;;8.73;4.43;;;;;;;17.75;55.47;101234.03;4965940;28;20097;-35
2023/12/26 08:38:52;;;;;;;8.80;4.45;;;;;;;17.73;56.17;101239.53;4966425;28;20047;-35
2023/12/26 08:41:19;;;;;;;10.60;5.88;;;;;;;17.72;55.91;101253.88;4962493;28;20051;-34
2023/12/26 08:43:46;;;;;;;11.45;5.88;;;;;;;17.74;56.19;101262.69;4965744;28;20043;-35
2023/12/26 08:46:14;;;;;;;15.60;6.90;;;;;;;17.79;56.08;101275.66;4962811;28;20057;-35
2023/12/26 08:48:40;;;;;;;14.88;7.07;;;;;;;17.83;56.18;101282.44;4964805;28;20121;-35
2023/12/26 08:51:07;;;;;;;16.23;8.48;;;;;;;17.83;55.58;101282.44;4967136;28;20058;-34
2023/12/26 08:53:34;;;;;;;17.83;9.55;;;;;;;17.82;55.44;101290.63;4964284;28;20039;-35
2023/12/26 08:56:03;;;;;;;18.90;9.50;;;;;;;17.76;55.44;101290.19;4965655;28;20481;-36
2023/12/26 08:58:32;;;;;;;17.52;9.57;;;;;;;17.73;55.67;101301.19;4963299;28;20145;-36
2023/12/26 09:01:00;;;;;;;19.25;9.75;;;;;;;17.71;55.62;101297.78;4965317;28;20050;-34
2023/12/26 09:03:28;;;;;;;18.35;9.98;;;;;;;17.69;55.62;101305.13;4963592;28;20061;-34
2023/12/26 09:05:55;;;;;;;21.13;11.23;;;;;;;17.66;55.54;101313.44;4964196;28;20054;-34
2023/12/26 09:08:22;;;;;;;22.33;11.50;;;;;;;17.74;55.08;101319.00;4955382;28;20442;-36
2023/12/26 09:10:48;;;;;;;21.98;11.98;;;;;;;17.80;55.33;101322.94;4959833;28;20062;-40
2023/12/26 09:13:19;;;;;;;32.28;14.48;;;;;;;17.87;55.87;101323.22;4959568;28;20047;-38
2023/12/26 09:15:45;;;;;;;28.80;14.65;;;;;;;17.94;55.95;101321.69;4957769;28;20051;-38
2023/12/26 09:18:12;;;;;;;36.45;16.65;;;;;;;18.00;55.37;101329.16;4960741;28;20056;-35
2023/12/26 09:20:39;;;;;;;29.75;14.57;;;;;;;18.06;54.99;101338.47;4960669;28;20058;-38
2023/12/26 09:23:06;;;;;;;26.60;14.73;;;;;;;18.09;54.33;101331.00;4959722;28;20493;-34
2023/12/26 09:25:32;;;;;;;26.23;14.25;;;;;;;18.14;54.53;101336.78;4958626;28;20054;-41
2023/12/26 09:27:59;;;;;;;29.27;13.40;;;;;;;18.17;53.79;101341.00;4959542;28;20046;-41
2023/12/26 09:30:26;;;;;;;26.38;12.82;;;;;;;18.16;53.94;101364.28;4962270;28;20083;-39
2023/12/26 09:32:52;;;;;;;32.33;14.82;;;;;;;18.16;53.96;101356.25;4957573;28;20058;-40
2023/12/26 09:35:19;;;;;;;31.75;17.58;;;;;;;18.17;53.55;101355.28;4961920;28;20058;-41
2023/12/26 09:37:46;;;;;;;47.60;22.55;;;;;;;18.17;53.54;101362.47;4960889;28;20054;-39
2023/12/26 09:40:13;;;;;;;35.92;19.60;;;;;;;18.20;53.81;101379.13;4963773;28;20592;-36
2023/12/26 09:42:40;;;;;;;42.83;22.52;;;;;;;18.22;53.34;101390.56;4957839;28;20390;-39
2023/12/26 09:45:13;;;;;;;42.83;21.85;;;;;;;18.24;52.90;101393.94;4960383;28;20100;-36
2023/12/26 09:47:42;;;;;;;38.65;20.98;;;;;;;18.29;52.98;101396.22;4960361;28;20113;-36
2023/12/26 09:50:10;;;;;;;42.42;22.30;;;;;;;18.33;52.67;101412.88;4959396;28;20062;-36
2023/12/26 09:52:38;;;;;;;40.67;22.02;;;;;;;18.36;52.81;101408.06;4961188;28;20046;-41
2023/12/26 09:55:06;;;;;;;39.50;21.20;;;;;;;18.39;52.92;101410.47;4958358;28;20328;-44
2023/12/26 09:57:33;;;;;;;41.10;22.75;;;;;;;18.42;52.81;101412.03;4959503;28;20138;-43
2023/12/26 09:59:59;;;;;;;38.08;20.35;;;;;;;18.46;52.54;101421.50;4956372;28;20446;-45
2023/12/26 10:02:26;;;;;;;42.63;21.10;;;;;;;18.47;52.54;101418.66;4960979;28;20054;-44
2023/12/26 10:04:53;;;;;;;36.75;19.77;;;;;;;18.51;52.70;101416.53;4959059;28;20057;-44
2023/12/26 10:07:20;;;;;;;37.30;20.70;;;;;;;18.54;52.62;101416.28;4955777;28;20716;-42
2023/12/26 10:09:48;;;;;;;36.13;19.52;;;;;;;18.59;52.24;101429.25;4956548;28;20053;-45
2023/12/26 10:12:14;;;;;;;39.70;21.48;;;;;;;18.61;52.69;101440.69;4957829;28;20051;-46
2023/12/26 10:14:41;;;;;;;39.50;20.35;;;;;;;18.65;52.57;101442.09;4958206;28;20745;-44
2023/12/26 10:17:08;;;;;;;36.15;19.88;;;;;;;18.67;52.09;101446.34;4956404;28;20050;-45
2023/12/26 10:19:37;;;;;;;39.17;19.58;;;;;;;18.67;52.44;101443.66;4956893;28;20051;-43
2023/12/26 10:22:04;;;;;;;34.22;18.40;;;;;;;18.70;52.78;101459.53;4955793;28;20391;-43
2023/12/26 10:24:30;;;;;;;45.35;18.55;;;;;;;18.73;52.36;101453.00;4954252;28;20055;-44
2023/12/26 10:26:58;;;;;;;38.85;18.80;;;;;;;18.72;52.58;101462.06;4958202;28;20434;-45
2023/12/26 10:29:25;;;;;;;34.35;17.48;;;;;;;18.72;52.37;101457.53;4960811;28;20646;-43
2023/12/26 10:31:52;;;;;;;32.58;17.60;;;;;;;18.73;52.14;101461.94;4958493;28;20058;-43
2023/12/26 10:34:19;;;;;;;37.33;17.48;;;;;;;18.74;52.18;101460.94;4963268;28;20395;-44
2023/12/26 10:36:49;;;;;;;34.00;16.10;;;;;;;18.76;52.38;101468.84;4963986;28;20469;-43
2023/12/26 10:39:16;;;;;;;32.50;16.02;;;;;;;18.77;52.38;101470.50;4962647;28;20061;-44
2023/12/26 10:41:45;;;;;;;31.50;16.83;;;;;;;18.79;52.19;101467.72;4965064;28;20054;-44
2023/12/26 10:44:15;;;;;;;32.08;15.93;;;;;;;18.78;52.20;101477.59;4958667;28;20249;-43
2023/12/26 10:46:43;;;;;;;29.83;14.85;;;;;;;18.79;52.04;101475.75;4958467;28;20047;-44
2023/12/26 10:49:11;;;;;;;30.70;14.90;;;;;;;18.77;52.23;101473.19;4962694;28;20497;-44
2023/12/26 10:51:44;;;;;;;29.45;14.45;;;;;;;18.74;52.11;101477.03;4960617;28;20133;-44
2023/12/26 10:54:22;;;;;;;28.02;15.40;;;;;;;18.74;52.39;101474.34;4959056;28;20134;-44
2023/12/26 10:56:50;;;;;;;27.92;15.48;;;;;;;18.76;52.36;101484.09;4962839;28;20345;-43
2023/12/26 13:52:27;;;;;;;34.05;17.80;;;;;;;18.91;52.48;101700.25;4963099;28;20136;-43
2023/12/26 13:55:31;;;;;;;32.80;16.17;;;;;;;18.88;52.74;101693.31;4964274;28;20059;-43
2023/12/26 13:58:35;;;;;;;31.92;16.98;;;;;;;18.86;52.80;101689.09;4962719;28;20050;-43
2023/12/26 14:01:04;;;;;;;33.53;17.33;;;;;;;18.87;52.61;101696.16;4963199;28;20462;-43
2023/12/26 14:03:31;;;;;;;31.92;16.08;;;;;;;18.84;53.00;101699.94;4961513;28;20047;-43
2023/12/26 14:05:58;;;;;;;28.77;16.08;;;;;;;18.82;52.76;101704.63;4964625;28;20134;-43
2023/12/26 14:08:25;;;;;;;34.22;17.90;;;;;;;18.80;52.65;101700.38;4960760;28;20436;-43
2023/12/26 14:10:51;;;;;;;31.95;17.30;;;;;;;18.78;52.95;101707.72;4962621;28;20046;-43
2023/12/26 14:13:18;;;;;;;31.52;16.52;;;;;;;18.76;53.08;101709.69;4967149;28;20047;-43
2023/12/26 14:15:45;;;;;;;32.40;15.90;;;;;;;18.72;52.70;101720.69;4962665;28;20086;-43